createdAt,value
2022-11-16T00:01:52.633Z,5.50
2022-11-16T00:04:20.525Z,7.50
2022-11-16T00:06:49.825Z,6.90
2022-11-16T00:09:23.585Z,8.10
2022-11-16T00:11:54.451Z,6.50
2022-11-16T00:14:24.022Z,7.00
2022-11-16T00:16:51.941Z,5.70
2022-11-16T00:19:19.852Z,6.10
2022-11-16T00:21:47.642Z,6.60
2022-11-16T00:24:17.078Z,7.30
2022-11-16T00:26:45.464Z,8.00
2022-11-16T00:29:19.685Z,8.00
2022-11-16T00:31:47.783Z,6.90
2022-11-16T00:34:17.575Z,6.40
2022-11-16T00:36:46.019Z,6.30
2022-11-16T00:39:15.396Z,6.50
2022-11-16T00:41:43.987Z,6.80
2022-11-16T00:44:12.089Z,7.80
2022-11-16T00:46:40.219Z,8.40
2022-11-16T00:49:09.706Z,8.60
2022-11-16T00:51:38.313Z,6.50
2022-11-16T00:54:08.600Z,5.90
2022-11-16T00:56:37.956Z,6.90
2022-11-16T01:01:34.745Z,6.10
2022-11-16T01:04:02.599Z,6.40
2022-11-16T01:06:30.303Z,6.20
2022-11-16T01:08:58.020Z,6.80
2022-11-16T01:11:44.928Z,8.10
2022-11-16T01:14:12.694Z,7.00
2022-11-16T01:16:40.544Z,7.20
2022-11-16T01:19:09.426Z,6.60
2022-11-16T01:21:37.284Z,6.30
2022-11-16T01:24:05.476Z,5.90
2022-11-16T01:26:33.236Z,5.20
2022-11-16T01:29:00.994Z,7.00
2022-11-16T01:31:32.412Z,6.60
2022-11-16T01:34:01.174Z,7.40
2022-11-16T01:36:30.260Z,6.40
2022-11-16T01:39:00.442Z,7.80
2022-11-16T01:41:33.543Z,6.00
2022-11-16T01:44:26.540Z,5.20
2022-11-16T01:46:58.591Z,4.20
2022-11-16T01:49:31.031Z,5.60
2022-11-16T01:52:07.531Z,6.30
2022-11-16T01:54:39.415Z,6.10
2022-11-16T01:57:11.820Z,5.60
2022-11-16T01:59:44.467Z,6.10
2022-11-16T02:02:16.589Z,5.10
2022-11-16T02:04:46.123Z,5.90
2022-11-16T02:07:16.204Z,5.20
2022-11-16T02:10:15.297Z,5.40
2022-11-16T02:13:07.528Z,6.60
2022-11-16T02:15:41.518Z,7.00
2022-11-16T02:18:35.891Z,7.70
2022-11-16T02:21:16.107Z,6.50
2022-11-16T02:24:05.301Z,5.80
2022-11-16T02:26:48.286Z,5.30
2022-11-16T02:29:40.112Z,5.90
2022-11-16T02:32:21.399Z,5.60
2022-11-16T02:35:00.675Z,6.40
2022-11-16T02:37:34.744Z,7.00
2022-11-16T02:40:09.233Z,5.50
2022-11-16T02:42:58.189Z,6.70
2022-11-16T02:45:31.991Z,5.20
2022-11-16T02:48:07.950Z,4.60
2022-11-16T02:50:38.425Z,5.20
2022-11-16T02:53:06.153Z,4.70
2022-11-16T02:55:36.919Z,5.50
2022-11-16T02:58:11.103Z,5.50
2022-11-16T03:00:57.271Z,5.30
2022-11-16T03:03:35.732Z,5.30
2022-11-16T03:06:06.492Z,4.50
2022-11-16T03:08:40.044Z,1.90
2022-11-16T03:11:30.816Z,3.80
2022-11-16T03:14:05.783Z,4.60
2022-11-16T03:16:38.540Z,5.20
2022-11-16T03:19:10.604Z,5.70
2022-11-16T03:21:48.337Z,3.40
2022-11-16T03:24:16.509Z,4.70
2022-11-16T03:27:01.383Z,4.20
2022-11-16T03:29:36.629Z,3.70
2022-11-16T03:32:20.640Z,3.60
2022-11-16T03:35:00.573Z,4.50
2022-11-16T03:37:30.352Z,4.50
2022-11-16T03:40:02.403Z,5.20
2022-11-16T03:42:32.664Z,4.50
2022-11-16T03:45:00.552Z,3.20
2022-11-16T03:47:28.319Z,3.00
2022-11-16T03:49:56.052Z,3.70
2022-11-16T03:52:24.527Z,3.40
2022-11-16T03:54:52.287Z,3.30
2022-11-16T03:57:20.111Z,5.30
2022-11-16T03:59:53.106Z,4.70
2022-11-16T04:02:21.176Z,4.60
2022-11-16T04:05:08.678Z,3.90
2022-11-16T04:07:55.997Z,3.90
2022-11-16T04:10:42.971Z,3.70
2022-11-16T04:13:32.249Z,3.10
2022-11-16T04:16:18.684Z,3.80
2022-11-16T04:19:05.308Z,5.10
2022-11-16T04:21:58.503Z,4.80
2022-11-16T04:24:32.390Z,4.20
2022-11-16T04:27:24.519Z,5.30
2022-11-16T04:29:54.164Z,4.50
2022-11-16T04:35:27.843Z,4.50
2022-11-16T04:37:58.338Z,3.60
2022-11-16T04:40:32.107Z,3.80
2022-11-16T04:43:01.742Z,3.60
2022-11-16T04:45:51.879Z,5.60
2022-11-16T04:48:21.915Z,5.60
2022-11-16T04:50:52.186Z,5.70
2022-11-16T04:53:22.608Z,5.40
2022-11-16T04:56:00.709Z,4.40
2022-11-16T04:58:28.868Z,5.60
2022-11-16T05:00:56.947Z,5.10
2022-11-16T05:03:24.753Z,5.60
2022-11-16T05:05:52.528Z,5.50
2022-11-16T05:08:20.789Z,5.90
2022-11-16T05:10:51.718Z,3.50
2022-11-16T05:13:19.889Z,4.30
2022-11-16T05:15:49.448Z,4.10
2022-11-16T05:18:17.409Z,6.80
2022-11-16T05:21:00.342Z,6.10
2022-11-16T05:23:48.046Z,6.10
2022-11-16T05:26:16.284Z,6.70
2022-11-16T05:28:44.011Z,6.10
2022-11-16T05:31:12.387Z,5.40
2022-11-16T05:33:40.381Z,5.90
2022-11-16T05:36:08.906Z,4.60
2022-11-16T05:38:37.223Z,4.80
2022-11-16T05:41:06.304Z,6.10
2022-11-16T05:43:35.354Z,5.90
2022-11-16T05:46:14.864Z,6.50
2022-11-16T05:48:42.790Z,6.60
2022-11-16T05:51:13.236Z,5.70
2022-11-16T05:53:41.188Z,5.00
2022-11-16T05:56:09.060Z,5.80
2022-11-16T05:58:39.120Z,5.60
2022-11-16T06:01:07.186Z,2.90
2022-11-16T06:03:36.501Z,6.80
2022-11-16T06:06:05.343Z,7.10
2022-11-16T06:08:35.810Z,5.90
2022-11-16T06:11:07.703Z,7.10
2022-11-16T06:13:37.301Z,7.00
2022-11-16T06:16:05.620Z,6.50
2022-11-16T06:18:39.071Z,6.50
2022-11-16T06:21:07.901Z,5.60
2022-11-16T06:23:35.699Z,5.40
2022-11-16T06:26:05.194Z,6.30
2022-11-16T06:28:34.475Z,6.50
2022-11-16T06:31:02.862Z,6.50
2022-11-16T06:33:33.758Z,6.10
2022-11-16T06:36:03.423Z,7.50
2022-11-16T06:41:01.590Z,6.30
2022-11-16T06:43:29.950Z,5.60
2022-11-16T06:45:58.454Z,5.90
2022-11-16T06:48:26.293Z,6.40
2022-11-16T06:50:54.260Z,5.80
2022-11-16T06:53:28.698Z,5.50
2022-11-16T06:56:02.110Z,6.30
2022-11-16T06:58:32.098Z,8.80
2022-11-16T07:01:11.511Z,6.30
2022-11-16T07:03:40.831Z,5.50
2022-11-16T07:06:13.244Z,6.90
2022-11-16T07:08:43.049Z,5.30
2022-11-16T07:11:11.641Z,5.50
2022-11-16T07:13:39.888Z,5.20
2022-11-16T07:16:10.244Z,5.30
2022-11-16T07:18:41.986Z,6.00
2022-11-16T07:21:13.113Z,6.10
2022-11-16T07:23:41.233Z,4.50
2022-11-16T07:26:11.458Z,4.60
2022-11-16T07:28:48.191Z,4.10
2022-11-16T07:31:18.500Z,4.30
2022-11-16T07:34:43.186Z,4.60
2022-11-16T07:38:26.102Z,5.10
2022-11-16T07:41:25.296Z,5.80
2022-11-16T07:44:22.854Z,5.70
2022-11-16T07:47:01.847Z,5.80
2022-11-16T07:49:30.448Z,5.60
2022-11-16T07:52:03.586Z,7.00
2022-11-16T07:54:37.098Z,8.00
2022-11-16T07:57:05.074Z,6.40
2022-11-16T07:59:33.837Z,9.80
2022-11-16T08:02:02.079Z,22.00
2022-11-16T08:04:29.946Z,12.70
2022-11-16T08:06:58.967Z,13.20
2022-11-16T08:09:27.392Z,9.90
2022-11-16T08:11:55.211Z,17.40
2022-11-16T08:14:24.167Z,8.60
2022-11-16T08:16:52.342Z,7.40
2022-11-16T08:19:20.140Z,7.50
2022-11-16T08:21:48.742Z,8.60
2022-11-16T08:24:16.991Z,8.30
2022-11-16T08:26:44.949Z,9.90
2022-11-16T08:29:15.220Z,19.30
2022-11-16T08:31:47.536Z,9.40
2022-11-16T08:34:18.385Z,9.30
2022-11-16T08:36:48.138Z,6.70
2022-11-16T08:39:16.221Z,5.30
2022-11-16T08:41:44.410Z,6.40
2022-11-16T08:44:12.571Z,6.70
2022-11-16T08:46:42.270Z,19.20
2022-11-16T08:49:24.918Z,9.40
2022-11-16T08:51:53.072Z,6.00
2022-11-16T08:54:21.419Z,7.10
2022-11-16T08:56:49.261Z,4.70
2022-11-16T08:59:17.562Z,4.40
2022-11-16T09:01:50.319Z,4.70
2022-11-16T09:04:18.754Z,6.50
2022-11-16T09:06:46.469Z,4.20
2022-11-16T09:09:14.177Z,7.20
2022-11-16T09:11:41.965Z,5.10
2022-11-16T09:14:09.739Z,5.80
2022-11-16T09:16:37.576Z,4.20
2022-11-16T09:19:05.340Z,3.20
2022-11-16T09:21:33.130Z,5.90
2022-11-16T09:24:00.888Z,4.00
2022-11-16T09:26:28.656Z,9.10
2022-11-16T09:28:59.272Z,9.30
2022-11-16T09:31:28.485Z,5.90
2022-11-16T09:33:58.886Z,5.10
2022-11-16T09:36:28.713Z,8.80
2022-11-16T09:41:56.965Z,4.40
2022-11-16T09:44:57.757Z,5.30
2022-11-16T09:47:40.612Z,4.40
2022-11-16T09:50:26.348Z,5.40
2022-11-16T09:52:58.440Z,4.50
2022-11-16T09:55:35.959Z,5.30
2022-11-16T09:58:13.557Z,5.50
2022-11-16T10:00:51.120Z,5.90
2022-11-16T10:03:19.264Z,3.30
2022-11-16T10:05:53.042Z,3.70
2022-11-16T10:08:23.498Z,3.90
2022-11-16T10:10:59.098Z,7.60
2022-11-16T10:13:51.541Z,14.10
2022-11-16T10:16:28.524Z,15.80
2022-11-16T10:19:07.348Z,21.20
2022-11-16T10:22:02.421Z,20.80
2022-11-16T10:24:41.285Z,3.80
2022-11-16T10:27:38.242Z,4.20
2022-11-16T10:30:20.483Z,4.80
2022-11-16T10:33:00.403Z,6.40
2022-11-16T10:35:39.589Z,3.20
2022-11-16T10:38:14.290Z,3.40
2022-11-16T10:40:47.322Z,3.50
2022-11-16T10:43:29.636Z,2.50
2022-11-16T10:46:05.946Z,2.40
2022-11-16T10:48:48.951Z,3.20
2022-11-16T10:51:16.944Z,6.20
2022-11-16T10:53:44.687Z,3.20
2022-11-16T10:56:27.677Z,4.70
2022-11-16T10:58:55.473Z,2.50
2022-11-16T11:01:50.632Z,10.20
2022-11-16T11:04:32.687Z,2.90
2022-11-16T11:09:31.334Z,2.20
2022-11-16T11:12:38.662Z,3.20
2022-11-16T11:15:12.670Z,3.20
2022-11-16T11:17:43.210Z,3.40
2022-11-16T11:20:18.182Z,3.90
2022-11-16T11:22:56.131Z,2.60
2022-11-16T11:25:56.557Z,2.80
2022-11-16T11:31:03.981Z,3.50
2022-11-16T11:33:44.054Z,7.10
2022-11-16T11:36:27.380Z,5.10
2022-11-16T11:39:01.697Z,6.70
2022-11-16T11:41:34.997Z,5.80
2022-11-16T11:44:05.536Z,4.50
2022-11-16T11:47:23.669Z,15.40
2022-11-16T11:49:34.374Z,4.90
2022-11-16T11:52:39.279Z,8.00
2022-11-16T11:55:08.821Z,4.30
2022-11-16T12:00:09.232Z,3.00
2022-11-16T12:02:54.889Z,4.60
2022-11-16T12:05:35.255Z,4.10
2022-11-16T12:08:31.702Z,3.90
2022-11-16T12:11:28.838Z,2.70
2022-11-16T12:14:02.199Z,3.00
2022-11-16T12:17:22.604Z,3.60
2022-11-16T12:20:09.160Z,5.40
2022-11-16T12:23:04.424Z,3.50
2022-11-16T12:26:18.328Z,5.80
2022-11-16T12:29:00.549Z,7.20
2022-11-16T12:31:46.630Z,5.70
2022-11-16T12:34:33.326Z,5.20
2022-11-16T12:37:15.618Z,3.70
2022-11-16T12:39:50.447Z,3.30
2022-11-16T12:42:21.053Z,3.40
2022-11-16T12:45:11.002Z,4.10
2022-11-16T12:48:20.890Z,4.30
2022-11-16T12:50:59.809Z,23.50
2022-11-16T12:53:42.687Z,15.60
2022-11-16T12:56:19.395Z,11.10
2022-11-16T12:59:51.363Z,8.90
2022-11-16T13:02:51.190Z,10.20
2022-11-16T13:05:31.734Z,5.10
2022-11-16T13:08:07.904Z,3.00
2022-11-16T13:10:42.879Z,2.70
2022-11-16T13:13:35.316Z,2.90
2022-11-16T13:16:06.683Z,2.60
2022-11-16T13:18:41.451Z,2.10
2022-11-16T13:21:41.024Z,2.10
2022-11-16T13:24:47.040Z,0.90
2022-11-16T13:27:39.503Z,0.90
2022-11-16T13:30:24.719Z,1.00
2022-11-16T13:32:55.149Z,1.10
2022-11-16T13:35:24.005Z,1.20
2022-11-16T13:37:52.260Z,0.90
2022-11-16T13:40:24.745Z,1.20
2022-11-16T13:42:58.599Z,1.00
2022-11-16T13:45:48.609Z,1.00
2022-11-16T13:48:25.580Z,1.30
2022-11-16T13:50:59.523Z,1.70
2022-11-16T13:56:29.360Z,0.90
2022-11-16T13:58:59.022Z,1.50
2022-11-16T14:01:55.003Z,0.80
2022-11-16T14:04:54.982Z,1.00
2022-11-16T14:07:33.679Z,1.90
2022-11-16T14:10:05.608Z,1.90
2022-11-16T14:12:39.213Z,1.40
2022-11-16T14:15:19.289Z,1.90
2022-11-16T14:17:50.115Z,1.40
2022-11-16T14:20:28.444Z,1.30
2022-11-16T14:23:26.671Z,2.40
2022-11-16T14:26:14.001Z,3.20
2022-11-16T14:29:00.497Z,2.10
2022-11-16T14:31:31.280Z,3.60
2022-11-16T14:34:00.800Z,2.30
2022-11-16T14:36:54.929Z,2.90
2022-11-16T14:39:43.562Z,3.60
2022-11-16T14:42:22.054Z,2.90
2022-11-16T14:44:50.622Z,3.90
2022-11-16T14:47:30.673Z,4.00
2022-11-16T14:49:58.404Z,6.10
2022-11-16T14:52:34.529Z,7.20
2022-11-16T14:55:06.635Z,4.50
2022-11-16T14:57:34.878Z,3.50
2022-11-16T15:00:20.170Z,3.30
2022-11-16T15:02:59.202Z,4.90
2022-11-16T15:08:12.823Z,3.20
2022-11-16T15:10:48.138Z,8.30
2022-11-16T15:13:24.704Z,6.90
2022-11-16T15:16:10.004Z,5.90
2022-11-16T15:18:37.739Z,3.90
2022-11-16T15:21:06.430Z,4.70
2022-11-16T15:23:56.900Z,5.00
2022-11-16T15:26:38.394Z,3.90
2022-11-16T15:29:06.309Z,2.30
2022-11-16T15:31:34.374Z,4.20
2022-11-16T15:34:02.264Z,2.70
2022-11-16T15:36:39.245Z,4.70
2022-11-16T15:39:13.939Z,4.60
2022-11-16T15:41:42.844Z,3.30
2022-11-16T15:44:16.042Z,2.70
2022-11-16T15:46:50.768Z,3.10
2022-11-16T15:49:27.638Z,2.60
2022-11-16T15:51:57.512Z,2.80
2022-11-16T15:54:29.609Z,3.70
2022-11-16T15:57:07.864Z,4.30
2022-11-16T15:59:37.274Z,3.80
2022-11-16T16:02:05.280Z,3.10
2022-11-16T16:04:33.155Z,5.60
2022-11-16T16:07:01.081Z,3.60
2022-11-16T16:09:37.007Z,15.20
2022-11-16T16:14:49.394Z,8.40
2022-11-16T16:17:26.114Z,29.60
2022-11-16T16:19:59.656Z,17.20
2022-11-16T16:22:37.161Z,10.90
2022-11-16T16:25:06.629Z,8.40
2022-11-16T16:27:39.990Z,7.40
2022-11-16T16:30:08.832Z,15.10
2022-11-16T16:32:37.630Z,21.50
2022-11-16T16:35:08.456Z,18.70
2022-11-16T16:37:36.871Z,11.40
2022-11-16T16:40:05.434Z,10.90
2022-11-16T16:42:33.359Z,11.90
2022-11-16T16:45:02.450Z,8.60
2022-11-16T16:47:31.016Z,6.20
2022-11-16T16:49:59.345Z,9.30
2022-11-16T16:52:28.521Z,5.20
2022-11-16T16:54:56.304Z,5.50
2022-11-16T16:57:24.047Z,4.20
2022-11-16T16:59:52.160Z,5.80
2022-11-16T17:02:20.302Z,4.40
2022-11-16T17:04:48.561Z,7.00
2022-11-16T17:07:16.480Z,5.50
2022-11-16T17:09:44.867Z,5.60
2022-11-16T17:12:13.018Z,5.00
2022-11-16T17:14:40.883Z,4.90
2022-11-16T17:17:08.778Z,5.90
2022-11-16T17:19:37.575Z,7.10
2022-11-16T17:22:05.310Z,4.90
2022-11-16T17:24:34.637Z,5.40
2022-11-16T17:27:03.160Z,5.10
2022-11-16T17:29:30.919Z,5.50
2022-11-16T17:31:58.672Z,3.80
2022-11-16T17:34:26.403Z,2.70
2022-11-16T17:36:55.851Z,5.30
2022-11-16T17:39:25.079Z,6.20
2022-11-16T17:41:52.965Z,2.90
2022-11-16T17:44:22.162Z,3.00
2022-11-16T17:46:50.251Z,3.20
2022-11-16T17:49:18.064Z,3.50
2022-11-16T17:51:45.857Z,4.20
2022-11-16T17:54:13.657Z,3.80
2022-11-16T17:56:41.781Z,4.90
2022-11-16T17:59:09.721Z,4.70
2022-11-16T18:01:37.598Z,3.70
2022-11-16T18:04:06.247Z,3.60
2022-11-16T18:06:35.528Z,3.30
2022-11-16T18:09:03.345Z,2.30
2022-11-16T18:11:31.210Z,2.70
2022-11-16T18:14:03.278Z,3.10
2022-11-16T18:16:33.103Z,2.20
2022-11-16T18:19:03.474Z,3.40
2022-11-16T18:21:38.277Z,1.90
2022-11-16T18:24:06.354Z,2.30
2022-11-16T18:26:34.294Z,4.00
2022-11-16T18:29:02.036Z,2.70
2022-11-16T18:34:37.569Z,5.10
2022-11-16T18:37:05.658Z,2.70
2022-11-16T18:39:33.414Z,2.30
2022-11-16T18:42:01.250Z,1.60
2022-11-16T18:44:29.062Z,2.50
2022-11-16T18:46:57.143Z,2.30
2022-11-16T18:49:25.406Z,1.80
2022-11-16T18:51:53.262Z,3.10
2022-11-16T18:54:21.092Z,2.60
2022-11-16T18:56:49.003Z,1.80
2022-11-16T18:59:16.801Z,4.00
2022-11-16T19:01:44.619Z,3.30
2022-11-16T19:04:12.347Z,3.70
2022-11-16T19:06:40.065Z,2.60
2022-11-16T19:09:09.687Z,2.50
2022-11-16T19:11:38.034Z,3.80
2022-11-16T19:14:07.727Z,4.30
2022-11-16T19:16:36.387Z,3.50
2022-11-16T19:19:05.080Z,2.70
2022-11-16T19:21:32.836Z,2.40
2022-11-16T19:24:00.562Z,1.90
2022-11-16T19:26:28.512Z,1.90
2022-11-16T19:28:56.264Z,2.70
2022-11-16T19:31:26.612Z,2.10
2022-11-16T19:33:58.931Z,2.20
2022-11-16T19:36:28.760Z,3.00
2022-11-16T19:38:56.696Z,3.40
2022-11-16T19:41:26.276Z,2.70
2022-11-16T19:43:59.914Z,2.60
2022-11-16T19:46:30.156Z,2.50
2022-11-16T19:48:58.848Z,2.00
2022-11-16T19:51:28.720Z,2.00
2022-11-16T19:53:58.386Z,1.60
2022-11-16T19:56:26.587Z,3.00
2022-11-16T19:58:54.380Z,3.60
2022-11-16T20:01:29.153Z,2.20
2022-11-16T20:04:00.041Z,3.40
2022-11-16T20:06:30.781Z,2.90
2022-11-16T20:09:01.069Z,1.70
2022-11-16T20:11:30.767Z,3.70
2022-11-16T20:14:01.433Z,3.50
2022-11-16T20:16:37.144Z,3.50
2022-11-16T20:19:10.741Z,3.60
2022-11-16T20:21:41.342Z,3.20
2022-11-16T20:24:17.248Z,3.30
2022-11-16T20:29:16.499Z,2.40
2022-11-16T20:31:45.550Z,3.40
2022-11-16T20:34:16.482Z,3.40
2022-11-16T20:36:46.809Z,3.30
2022-11-16T20:39:16.666Z,3.80
2022-11-16T20:41:45.300Z,3.10
2022-11-16T20:44:17.753Z,3.00
2022-11-16T20:46:45.591Z,3.60
2022-11-16T20:49:13.636Z,4.10
2022-11-16T20:51:42.309Z,3.10
2022-11-16T20:54:10.025Z,4.50
2022-11-16T20:56:37.826Z,4.30
2022-11-16T20:59:05.535Z,4.60
2022-11-16T21:01:33.480Z,5.00
2022-11-16T21:04:03.884Z,4.40
2022-11-16T21:06:32.720Z,4.60
2022-11-16T21:09:01.016Z,2.90
2022-11-16T21:11:30.778Z,4.20
2022-11-16T21:14:16.637Z,4.10
2022-11-16T21:16:44.620Z,3.20
2022-11-16T21:19:13.118Z,3.40
2022-11-16T21:21:41.184Z,2.90
2022-11-16T21:24:09.611Z,4.30
2022-11-16T21:26:37.726Z,4.90
2022-11-16T21:29:06.695Z,5.90
2022-11-16T21:31:36.449Z,4.70
2022-11-16T21:34:05.821Z,5.40
2022-11-16T21:36:34.055Z,5.70
2022-11-16T21:39:01.885Z,3.70
2022-11-16T21:41:30.487Z,4.20
2022-11-16T21:43:58.251Z,4.40
2022-11-16T21:46:27.165Z,4.20
2022-11-16T21:48:56.454Z,4.10
2022-11-16T21:53:54.285Z,4.10
2022-11-16T21:56:24.159Z,5.40
2022-11-16T21:58:53.172Z,3.30
2022-11-16T22:01:22.474Z,5.40
2022-11-16T22:04:10.478Z,5.30
2022-11-16T22:06:56.915Z,3.90
2022-11-16T22:09:24.695Z,4.30
2022-11-16T22:11:52.418Z,4.30
2022-11-16T22:14:20.126Z,4.40
2022-11-16T22:16:48.949Z,5.40
2022-11-16T22:19:16.623Z,4.70
2022-11-16T22:21:44.340Z,5.80
2022-11-16T22:24:12.034Z,5.00
2022-11-16T22:26:41.104Z,5.50
2022-11-16T22:29:08.867Z,3.80
2022-11-16T22:31:36.704Z,5.50
2022-11-16T22:34:04.471Z,4.00
2022-11-16T22:36:32.188Z,3.50
2022-11-16T22:39:00.733Z,4.50
2022-11-16T22:41:29.711Z,6.20
2022-11-16T22:43:57.534Z,5.50
2022-11-16T22:46:25.257Z,5.40
2022-11-16T22:48:52.972Z,5.20
2022-11-16T22:51:23.740Z,5.00
2022-11-16T22:53:56.291Z,5.00
2022-11-16T22:56:25.067Z,4.10
2022-11-16T22:58:53.139Z,4.00
2022-11-16T23:01:21.595Z,3.40
2022-11-16T23:03:49.724Z,2.30
2022-11-16T23:06:17.981Z,4.00
2022-11-16T23:08:46.193Z,3.40
2022-11-16T23:11:35.526Z,3.70
2022-11-16T23:14:23.453Z,3.30
2022-11-16T23:16:52.053Z,3.20
2022-11-16T23:19:59.805Z,2.50
2022-11-16T23:22:46.134Z,1.50
2022-11-16T23:25:32.567Z,2.40
2022-11-16T23:28:05.472Z,1.80
2022-11-16T23:30:35.194Z,1.40
2022-11-16T23:33:03.733Z,2.40
2022-11-16T23:35:31.789Z,3.50
2022-11-16T23:38:01.596Z,3.30
2022-11-16T23:40:32.208Z,2.40
2022-11-16T23:43:18.465Z,2.60
2022-11-16T23:45:46.652Z,2.10
2022-11-16T23:48:16.037Z,2.40
2022-11-16T23:50:45.182Z,2.70
2022-11-16T23:53:13.530Z,2.00
2022-11-16T23:55:41.436Z,2.80
2022-11-16T23:58:14.530Z,2.50
